sensor_id;sensor_type;location;lat;lon;timestamp;temperature;humidity
18297;DHT22;18066;52.106;5.534;2023-05-14T00:01:04;14.20;99.90
18297;DHT22;18066;52.106;5.534;2023-05-14T00:03:32;14.00;99.90
18297;DHT22;18066;52.106;5.534;2023-05-14T00:05:59;14.00;99.90
18297;DHT22;18066;52.106;5.534;2023-05-14T00:08:26;13.90;99.90
18297;DHT22;18066;52.106;5.534;2023-05-14T00:10:53;13.80;99.90
18297;DHT22;18066;52.106;5.534;2023-05-14T00:13:20;13.90;99.90
18297;DHT22;18066;52.106;5.534;2023-05-14T00:15:47;13.90;99.90
18297;DHT22;18066;52.106;5.534;2023-05-14T00:18:15;13.90;99.90
18297;DHT22;18066;52.106;5.534;2023-05-14T00:20:42;13.90;99.90
18297;DHT22;18066;52.106;5.534;2023-05-14T00:23:08;13.90;99.90
18297;DHT22;18066;52.106;5.534;2023-05-14T00:25:35;13.90;99.90
18297;DHT22;18066;52.106;5.534;2023-05-14T00:28:02;13.90;99.90
18297;DHT22;18066;52.106;5.534;2023-05-14T00:30:29;13.80;99.90
18297;DHT22;18066;52.106;5.534;2023-05-14T00:32:56;13.80;99.90
18297;DHT22;18066;52.106;5.534;2023-05-14T00:35:24;13.80;99.90
18297;DHT22;18066;52.106;5.534;2023-05-14T00:37:51;13.80;99.90
18297;DHT22;18066;52.106;5.534;2023-05-14T00:42:45;13.70;99.90
18297;DHT22;18066;52.106;5.534;2023-05-14T00:45:12;13.70;99.90
18297;DHT22;18066;52.106;5.534;2023-05-14T00:47:39;13.80;99.90
18297;DHT22;18066;52.106;5.534;2023-05-14T00:50:06;13.80;99.90
18297;DHT22;18066;52.106;5.534;2023-05-14T00:52:35;13.80;99.90
18297;DHT22;18066;52.106;5.534;2023-05-14T00:55:05;13.80;99.90
18297;DHT22;18066;52.106;5.534;2023-05-14T00:57:32;13.80;99.90
18297;DHT22;18066;52.106;5.534;2023-05-14T01:00:00;13.70;99.90
18297;DHT22;18066;52.106;5.534;2023-05-14T01:02:28;13.70;99.90
18297;DHT22;18066;52.106;5.534;2023-05-14T01:04:55;13.70;99.90
18297;DHT22;18066;52.106;5.534;2023-05-14T01:07:28;13.60;99.90
18297;DHT22;18066;52.106;5.534;2023-05-14T01:10:01;13.60;99.90
18297;DHT22;18066;52.106;5.534;2023-05-14T01:12:33;13.70;99.90
18297;DHT22;18066;52.106;5.534;2023-05-14T01:15:06;13.60;99.90
18297;DHT22;18066;52.106;5.534;2023-05-14T01:17:38;13.60;99.90
18297;DHT22;18066;52.106;5.534;2023-05-14T01:20:07;13.60;99.90
18297;DHT22;18066;52.106;5.534;2023-05-14T01:22:36;13.50;99.90
18297;DHT22;18066;52.106;5.534;2023-05-14T01:25:03;13.60;99.90
18297;DHT22;18066;52.106;5.534;2023-05-14T01:27:34;13.50;99.90
18297;DHT22;18066;52.106;5.534;2023-05-14T01:30:08;13.50;99.90
18297;DHT22;18066;52.106;5.534;2023-05-14T01:32:37;13.50;99.90
18297;DHT22;18066;52.106;5.534;2023-05-14T01:35:06;13.40;99.90
18297;DHT22;18066;52.106;5.534;2023-05-14T01:37:35;13.40;99.90
18297;DHT22;18066;52.106;5.534;2023-05-14T01:40:03;13.40;99.90
18297;DHT22;18066;52.106;5.534;2023-05-14T01:42:31;13.40;99.90
18297;DHT22;18066;52.106;5.534;2023-05-14T01:44:58;13.40;99.90
18297;DHT22;18066;52.106;5.534;2023-05-14T01:47:25;13.30;99.90
18297;DHT22;18066;52.106;5.534;2023-05-14T01:49:52;13.30;99.90
18297;DHT22;18066;52.106;5.534;2023-05-14T01:52:19;13.40;99.90
18297;DHT22;18066;52.106;5.534;2023-05-14T01:54:47;13.20;99.90
18297;DHT22;18066;52.106;5.534;2023-05-14T01:57:14;13.20;99.90
18297;DHT22;18066;52.106;5.534;2023-05-14T01:59:41;13.10;99.90
18297;DHT22;18066;52.106;5.534;2023-05-14T02:02:08;13.20;99.90
18297;DHT22;18066;52.106;5.534;2023-05-14T02:04:34;13.10;99.90
18297;DHT22;18066;52.106;5.534;2023-05-14T02:07:01;13.10;99.90
18297;DHT22;18066;52.106;5.534;2023-05-14T02:09:28;13.10;99.90
18297;DHT22;18066;52.106;5.534;2023-05-14T02:11:56;13.10;99.90
18297;DHT22;18066;52.106;5.534;2023-05-14T02:14:23;13.10;99.90
18297;DHT22;18066;52.106;5.534;2023-05-14T02:16:50;13.10;99.90
18297;DHT22;18066;52.106;5.534;2023-05-14T02:19:16;13.00;99.90
18297;DHT22;18066;52.106;5.534;2023-05-14T02:21:43;13.10;99.90
18297;DHT22;18066;52.106;5.534;2023-05-14T02:24:10;13.10;99.90
18297;DHT22;18066;52.106;5.534;2023-05-14T02:26:37;13.10;99.90
18297;DHT22;18066;52.106;5.534;2023-05-14T02:29:05;12.90;99.90
18297;DHT22;18066;52.106;5.534;2023-05-14T02:31:32;13.00;99.90
18297;DHT22;18066;52.106;5.534;2023-05-14T02:34:00;12.90;99.90
18297;DHT22;18066;52.106;5.534;2023-05-14T02:36:26;13.00;99.90
18297;DHT22;18066;52.106;5.534;2023-05-14T02:38:53;12.90;99.90
18297;DHT22;18066;52.106;5.534;2023-05-14T02:41:20;12.80;99.90
18297;DHT22;18066;52.106;5.534;2023-05-14T02:43:47;12.90;99.90
18297;DHT22;18066;52.106;5.534;2023-05-14T02:46:15;13.20;99.90
18297;DHT22;18066;52.106;5.534;2023-05-14T02:48:42;12.80;99.90
18297;DHT22;18066;52.106;5.534;2023-05-14T02:51:09;12.90;99.90
18297;DHT22;18066;52.106;5.534;2023-05-14T02:53:36;12.80;99.90
18297;DHT22;18066;52.106;5.534;2023-05-14T02:56:03;12.80;99.90
18297;DHT22;18066;52.106;5.534;2023-05-14T02:58:30;12.80;99.90
18297;DHT22;18066;52.106;5.534;2023-05-14T03:00:56;12.70;99.90
18297;DHT22;18066;52.106;5.534;2023-05-14T03:03:24;12.70;99.90
18297;DHT22;18066;52.106;5.534;2023-05-14T03:05:52;12.70;99.90
18297;DHT22;18066;52.106;5.534;2023-05-14T03:08:18;12.70;99.90
18297;DHT22;18066;52.106;5.534;2023-05-14T03:10:45;12.70;99.90
18297;DHT22;18066;52.106;5.534;2023-05-14T03:13:12;12.70;99.90
18297;DHT22;18066;52.106;5.534;2023-05-14T03:15:42;12.90;99.90
18297;DHT22;18066;52.106;5.534;2023-05-14T03:18:09;12.70;99.90
18297;DHT22;18066;52.106;5.534;2023-05-14T03:20:37;12.60;99.90
18297;DHT22;18066;52.106;5.534;2023-05-14T03:23:04;12.60;99.90
18297;DHT22;18066;52.106;5.534;2023-05-14T03:25:30;12.60;99.90
18297;DHT22;18066;52.106;5.534;2023-05-14T03:27:58;12.60;99.90
18297;DHT22;18066;52.106;5.534;2023-05-14T03:30:25;12.50;99.90
18297;DHT22;18066;52.106;5.534;2023-05-14T03:32:52;12.60;99.90
18297;DHT22;18066;52.106;5.534;2023-05-14T03:35:19;12.50;99.90
18297;DHT22;18066;52.106;5.534;2023-05-14T03:37:47;12.60;99.90
18297;DHT22;18066;52.106;5.534;2023-05-14T03:40:14;12.60;99.90
18297;DHT22;18066;52.106;5.534;2023-05-14T03:42:41;12.50;99.90
18297;DHT22;18066;52.106;5.534;2023-05-14T03:45:08;12.50;99.90
18297;DHT22;18066;52.106;5.534;2023-05-14T03:47:35;12.50;99.90
18297;DHT22;18066;52.106;5.534;2023-05-14T03:50:02;12.50;99.90
18297;DHT22;18066;52.106;5.534;2023-05-14T03:52:29;12.50;99.90
18297;DHT22;18066;52.106;5.534;2023-05-14T03:54:57;12.50;99.90
18297;DHT22;18066;52.106;5.534;2023-05-14T03:57:24;12.50;99.90
18297;DHT22;18066;52.106;5.534;2023-05-14T03:59:51;12.50;99.90
18297;DHT22;18066;52.106;5.534;2023-05-14T04:02:18;12.50;99.90
18297;DHT22;18066;52.106;5.534;2023-05-14T04:04:44;12.50;99.90
18297;DHT22;18066;52.106;5.534;2023-05-14T04:07:11;12.50;99.90
18297;DHT22;18066;52.106;5.534;2023-05-14T04:09:38;12.60;99.90
18297;DHT22;18066;52.106;5.534;2023-05-14T04:12:07;12.50;99.90
18297;DHT22;18066;52.106;5.534;2023-05-14T04:14:34;12.50;99.90
18297;DHT22;18066;52.106;5.534;2023-05-14T04:17:00;12.50;99.90
18297;DHT22;18066;52.106;5.534;2023-05-14T04:19:28;12.50;99.90
18297;DHT22;18066;52.106;5.534;2023-05-14T04:21:54;12.50;99.90
18297;DHT22;18066;52.106;5.534;2023-05-14T04:24:21;12.60;99.90
18297;DHT22;18066;52.106;5.534;2023-05-14T04:26:48;12.60;99.90
18297;DHT22;18066;52.106;5.534;2023-05-14T04:29:16;12.60;99.90
18297;DHT22;18066;52.106;5.534;2023-05-14T04:31:43;12.60;99.90
18297;DHT22;18066;52.106;5.534;2023-05-14T04:34:10;12.60;99.90
18297;DHT22;18066;52.106;5.534;2023-05-14T04:36:37;12.60;99.90
18297;DHT22;18066;52.106;5.534;2023-05-14T04:39:04;12.60;99.90
18297;DHT22;18066;52.106;5.534;2023-05-14T04:41:31;12.70;99.90
18297;DHT22;18066;52.106;5.534;2023-05-14T04:43:59;12.70;99.90
18297;DHT22;18066;52.106;5.534;2023-05-14T04:46:27;12.70;99.90
18297;DHT22;18066;52.106;5.534;2023-05-14T04:48:54;12.70;99.90
18297;DHT22;18066;52.106;5.534;2023-05-14T04:51:22;12.70;99.90
18297;DHT22;18066;52.106;5.534;2023-05-14T04:53:49;13.00;99.90
18297;DHT22;18066;52.106;5.534;2023-05-14T04:56:16;12.80;99.90
18297;DHT22;18066;52.106;5.534;2023-05-14T04:58:42;13.00;99.90
18297;DHT22;18066;52.106;5.534;2023-05-14T05:01:09;12.80;99.90
18297;DHT22;18066;52.106;5.534;2023-05-14T05:03:37;13.00;99.90
18297;DHT22;18066;52.106;5.534;2023-05-14T05:06:04;12.90;99.90
18297;DHT22;18066;52.106;5.534;2023-05-14T05:08:31;12.90;99.90
18297;DHT22;18066;52.106;5.534;2023-05-14T05:10:58;12.90;99.90
18297;DHT22;18066;52.106;5.534;2023-05-14T05:13:25;13.00;99.90
18297;DHT22;18066;52.106;5.534;2023-05-14T05:15:52;13.00;99.90
18297;DHT22;18066;52.106;5.534;2023-05-14T05:18:18;13.00;99.90
18297;DHT22;18066;52.106;5.534;2023-05-14T05:20:46;13.00;99.90
18297;DHT22;18066;52.106;5.534;2023-05-14T05:23:13;13.10;99.90
18297;DHT22;18066;52.106;5.534;2023-05-14T05:25:40;13.10;99.90
18297;DHT22;18066;52.106;5.534;2023-05-14T05:28:07;13.10;99.90
18297;DHT22;18066;52.106;5.534;2023-05-14T05:30:34;13.10;99.90
18297;DHT22;18066;52.106;5.534;2023-05-14T05:33:00;13.10;99.90
18297;DHT22;18066;52.106;5.534;2023-05-14T05:35:27;13.10;99.90
18297;DHT22;18066;52.106;5.534;2023-05-14T05:37:56;13.10;99.90
18297;DHT22;18066;52.106;5.534;2023-05-14T05:40:23;13.20;99.90
18297;DHT22;18066;52.106;5.534;2023-05-14T05:42:50;13.20;99.90
18297;DHT22;18066;52.106;5.534;2023-05-14T05:45:16;13.30;99.90
18297;DHT22;18066;52.106;5.534;2023-05-14T05:47:43;13.40;99.90
18297;DHT22;18066;52.106;5.534;2023-05-14T05:50:10;13.40;99.90
18297;DHT22;18066;52.106;5.534;2023-05-14T05:52:37;13.40;99.90
18297;DHT22;18066;52.106;5.534;2023-05-14T05:55:06;13.30;99.90
18297;DHT22;18066;52.106;5.534;2023-05-14T05:57:33;13.10;99.90
18297;DHT22;18066;52.106;5.534;2023-05-14T06:00:00;13.00;99.90
18297;DHT22;18066;52.106;5.534;2023-05-14T06:02:37;13.00;99.90
18297;DHT22;18066;52.106;5.534;2023-05-14T06:05:04;13.30;99.90
18297;DHT22;18066;52.106;5.534;2023-05-14T06:07:31;13.00;99.90
18297;DHT22;18066;52.106;5.534;2023-05-14T06:09:58;13.10;99.90
18297;DHT22;18066;52.106;5.534;2023-05-14T06:12:26;13.10;99.90
18297;DHT22;18066;52.106;5.534;2023-05-14T06:14:54;13.20;99.90
18297;DHT22;18066;52.106;5.534;2023-05-14T06:17:22;13.40;99.90
18297;DHT22;18066;52.106;5.534;2023-05-14T06:19:49;13.40;99.90
18297;DHT22;18066;52.106;5.534;2023-05-14T06:22:16;13.60;99.90
18297;DHT22;18066;52.106;5.534;2023-05-14T06:24:43;13.60;99.90
18297;DHT22;18066;52.106;5.534;2023-05-14T06:27:10;13.70;99.90
18297;DHT22;18066;52.106;5.534;2023-05-14T06:29:38;13.90;99.90
18297;DHT22;18066;52.106;5.534;2023-05-14T06:32:06;14.00;99.90
18297;DHT22;18066;52.106;5.534;2023-05-14T06:34:33;14.10;99.90
18297;DHT22;18066;52.106;5.534;2023-05-14T06:37:00;14.10;99.90
18297;DHT22;18066;52.106;5.534;2023-05-14T06:39:28;14.20;99.90
18297;DHT22;18066;52.106;5.534;2023-05-14T06:41:55;14.40;99.90
18297;DHT22;18066;52.106;5.534;2023-05-14T06:44:22;14.40;99.90
18297;DHT22;18066;52.106;5.534;2023-05-14T06:46:50;14.50;99.90
18297;DHT22;18066;52.106;5.534;2023-05-14T06:49:17;14.50;99.90
18297;DHT22;18066;52.106;5.534;2023-05-14T06:51:44;14.50;99.90
18297;DHT22;18066;52.106;5.534;2023-05-14T06:54:11;14.50;99.90
18297;DHT22;18066;52.106;5.534;2023-05-14T06:56:38;14.50;99.90
18297;DHT22;18066;52.106;5.534;2023-05-14T06:59:04;14.70;99.90
18297;DHT22;18066;52.106;5.534;2023-05-14T07:01:31;14.80;99.90
18297;DHT22;18066;52.106;5.534;2023-05-14T07:03:59;15.00;99.90
18297;DHT22;18066;52.106;5.534;2023-05-14T07:06:26;14.90;99.90
18297;DHT22;18066;52.106;5.534;2023-05-14T07:08:53;15.00;99.90
18297;DHT22;18066;52.106;5.534;2023-05-14T07:11:20;15.30;99.90
18297;DHT22;18066;52.106;5.534;2023-05-14T07:13:47;15.20;99.90
18297;DHT22;18066;52.106;5.534;2023-05-14T07:16:14;15.40;99.90
18297;DHT22;18066;52.106;5.534;2023-05-14T07:18:41;15.60;99.90
18297;DHT22;18066;52.106;5.534;2023-05-14T07:21:09;15.70;99.90
18297;DHT22;18066;52.106;5.534;2023-05-14T07:23:36;16.00;99.90
18297;DHT22;18066;52.106;5.534;2023-05-14T07:26:04;16.20;99.90
18297;DHT22;18066;52.106;5.534;2023-05-14T07:28:31;16.20;99.90
18297;DHT22;18066;52.106;5.534;2023-05-14T07:30:58;16.00;99.90
18297;DHT22;18066;52.106;5.534;2023-05-14T07:33:25;15.90;99.90
18297;DHT22;18066;52.106;5.534;2023-05-14T07:35:52;15.90;99.90
18297;DHT22;18066;52.106;5.534;2023-05-14T07:38:20;16.10;99.90
18297;DHT22;18066;52.106;5.534;2023-05-14T07:40:47;16.40;99.90
18297;DHT22;18066;52.106;5.534;2023-05-14T07:43:14;16.50;99.90
18297;DHT22;18066;52.106;5.534;2023-05-14T07:45:40;16.30;99.90
18297;DHT22;18066;52.106;5.534;2023-05-14T07:48:07;16.70;99.90
18297;DHT22;18066;52.106;5.534;2023-05-14T07:50:36;16.80;99.90
18297;DHT22;18066;52.106;5.534;2023-05-14T07:53:03;16.90;99.90
18297;DHT22;18066;52.106;5.534;2023-05-14T07:55:31;16.90;99.90
18297;DHT22;18066;52.106;5.534;2023-05-14T07:57:58;17.10;99.90
18297;DHT22;18066;52.106;5.534;2023-05-14T08:00:24;17.20;99.90
18297;DHT22;18066;52.106;5.534;2023-05-14T08:02:51;17.20;99.90
18297;DHT22;18066;52.106;5.534;2023-05-14T08:05:18;17.30;99.90
18297;DHT22;18066;52.106;5.534;2023-05-14T08:07:45;17.50;99.90
18297;DHT22;18066;52.106;5.534;2023-05-14T08:10:11;17.50;99.90
18297;DHT22;18066;52.106;5.534;2023-05-14T08:12:39;17.50;99.90
18297;DHT22;18066;52.106;5.534;2023-05-14T08:15:08;17.60;99.90
18297;DHT22;18066;52.106;5.534;2023-05-14T08:17:34;17.60;99.90
18297;DHT22;18066;52.106;5.534;2023-05-14T08:20:01;17.50;99.90
18297;DHT22;18066;52.106;5.534;2023-05-14T08:22:30;17.60;99.90
18297;DHT22;18066;52.106;5.534;2023-05-14T08:24:57;17.60;99.90
18297;DHT22;18066;52.106;5.534;2023-05-14T08:27:26;17.50;99.90
18297;DHT22;18066;52.106;5.534;2023-05-14T08:29:54;17.70;99.90
18297;DHT22;18066;52.106;5.534;2023-05-14T08:32:21;17.70;99.90
18297;DHT22;18066;52.106;5.534;2023-05-14T08:34:47;17.80;99.90
18297;DHT22;18066;52.106;5.534;2023-05-14T08:37:14;18.00;99.90
18297;DHT22;18066;52.106;5.534;2023-05-14T08:39:41;18.00;99.90
18297;DHT22;18066;52.106;5.534;2023-05-14T08:42:11;18.20;99.90
18297;DHT22;18066;52.106;5.534;2023-05-14T08:44:40;18.10;99.90
18297;DHT22;18066;52.106;5.534;2023-05-14T08:47:14;18.30;99.90
18297;DHT22;18066;52.106;5.534;2023-05-14T08:49:42;18.40;99.90
18297;DHT22;18066;52.106;5.534;2023-05-14T08:52:09;18.60;99.90
18297;DHT22;18066;52.106;5.534;2023-05-14T08:54:36;18.70;99.90
18297;DHT22;18066;52.106;5.534;2023-05-14T08:57:04;18.60;99.90
18297;DHT22;18066;52.106;5.534;2023-05-14T08:59:31;18.70;99.90
18297;DHT22;18066;52.106;5.534;2023-05-14T09:02:01;18.70;99.90
18297;DHT22;18066;52.106;5.534;2023-05-14T09:04:31;18.70;99.90
18297;DHT22;18066;52.106;5.534;2023-05-14T09:07:00;18.90;99.90
18297;DHT22;18066;52.106;5.534;2023-05-14T09:09:27;18.90;99.90
18297;DHT22;18066;52.106;5.534;2023-05-14T09:11:54;18.90;99.90
18297;DHT22;18066;52.106;5.534;2023-05-14T09:14:21;18.90;99.90
18297;DHT22;18066;52.106;5.534;2023-05-14T09:16:49;19.00;99.90
18297;DHT22;18066;52.106;5.534;2023-05-14T09:19:17;19.10;99.90
18297;DHT22;18066;52.106;5.534;2023-05-14T09:21:46;19.10;99.90
18297;DHT22;18066;52.106;5.534;2023-05-14T09:24:18;19.20;99.90
18297;DHT22;18066;52.106;5.534;2023-05-14T09:26:49;19.20;99.90
18297;DHT22;18066;52.106;5.534;2023-05-14T09:29:16;19.20;99.90
18297;DHT22;18066;52.106;5.534;2023-05-14T09:31:42;19.30;99.90
18297;DHT22;18066;52.106;5.534;2023-05-14T09:34:09;19.20;99.90
18297;DHT22;18066;52.106;5.534;2023-05-14T09:36:36;19.10;99.90
18297;DHT22;18066;52.106;5.534;2023-05-14T09:39:04;19.30;99.90
18297;DHT22;18066;52.106;5.534;2023-05-14T09:41:31;19.30;99.90
18297;DHT22;18066;52.106;5.534;2023-05-14T09:43:58;19.50;99.90
18297;DHT22;18066;52.106;5.534;2023-05-14T09:46:26;19.70;99.90
18297;DHT22;18066;52.106;5.534;2023-05-14T09:48:55;19.70;99.90
18297;DHT22;18066;52.106;5.534;2023-05-14T09:51:23;19.80;99.90
18297;DHT22;18066;52.106;5.534;2023-05-14T09:53:51;19.90;99.90
18297;DHT22;18066;52.106;5.534;2023-05-14T09:56:19;20.10;99.90
18297;DHT22;18066;52.106;5.534;2023-05-14T09:58:47;20.10;99.90
18297;DHT22;18066;52.106;5.534;2023-05-14T10:01:14;20.20;99.90
18297;DHT22;18066;52.106;5.534;2023-05-14T10:03:44;20.10;99.90
18297;DHT22;18066;52.106;5.534;2023-05-14T10:06:12;20.00;99.90
18297;DHT22;18066;52.106;5.534;2023-05-14T10:08:43;20.10;99.90
18297;DHT22;18066;52.106;5.534;2023-05-14T10:11:12;20.30;99.90
18297;DHT22;18066;52.106;5.534;2023-05-14T10:13:45;20.30;99.90
18297;DHT22;18066;52.106;5.534;2023-05-14T10:16:15;20.40;99.90
18297;DHT22;18066;52.106;5.534;2023-05-14T10:18:46;20.40;99.90
18297;DHT22;18066;52.106;5.534;2023-05-14T10:21:19;20.50;99.90
18297;DHT22;18066;52.106;5.534;2023-05-14T10:23:47;20.60;99.90
18297;DHT22;18066;52.106;5.534;2023-05-14T10:26:14;20.70;99.90
18297;DHT22;18066;52.106;5.534;2023-05-14T10:28:43;20.70;99.90
18297;DHT22;18066;52.106;5.534;2023-05-14T10:31:10;20.60;99.90
18297;DHT22;18066;52.106;5.534;2023-05-14T10:33:45;20.30;99.90
18297;DHT22;18066;52.106;5.534;2023-05-14T10:36:15;20.30;99.90
18297;DHT22;18066;52.106;5.534;2023-05-14T10:38:43;20.50;99.90
18297;DHT22;18066;52.106;5.534;2023-05-14T10:41:11;20.70;99.90
18297;DHT22;18066;52.106;5.534;2023-05-14T10:43:40;20.80;99.90
18297;DHT22;18066;52.106;5.534;2023-05-14T10:46:11;20.90;99.90
18297;DHT22;18066;52.106;5.534;2023-05-14T10:48:40;20.80;99.90
18297;DHT22;18066;52.106;5.534;2023-05-14T10:51:08;20.90;99.90
18297;DHT22;18066;52.106;5.534;2023-05-14T10:53:37;21.00;99.90
18297;DHT22;18066;52.106;5.534;2023-05-14T10:56:05;21.20;99.90
18297;DHT22;18066;52.106;5.534;2023-05-14T10:58:35;21.20;99.90
18297;DHT22;18066;52.106;5.534;2023-05-14T11:01:03;21.30;99.90
18297;DHT22;18066;52.106;5.534;2023-05-14T11:03:38;20.90;99.90
18297;DHT22;18066;52.106;5.534;2023-05-14T11:06:07;20.90;99.90
18297;DHT22;18066;52.106;5.534;2023-05-14T11:08:33;21.00;99.90
18297;DHT22;18066;52.106;5.534;2023-05-14T11:11:01;21.00;99.90
18297;DHT22;18066;52.106;5.534;2023-05-14T11:13:28;21.30;99.90
18297;DHT22;18066;52.106;5.534;2023-05-14T11:15:55;21.20;99.90
18297;DHT22;18066;52.106;5.534;2023-05-14T11:18:26;21.40;99.90
18297;DHT22;18066;52.106;5.534;2023-05-14T11:20:57;21.60;99.90
18297;DHT22;18066;52.106;5.534;2023-05-14T11:23:24;21.80;99.90
18297;DHT22;18066;52.106;5.534;2023-05-14T11:25:51;22.00;99.90
18297;DHT22;18066;52.106;5.534;2023-05-14T11:28:19;22.00;99.90
18297;DHT22;18066;52.106;5.534;2023-05-14T11:30:47;21.90;99.90
18297;DHT22;18066;52.106;5.534;2023-05-14T11:33:15;22.10;99.90
18297;DHT22;18066;52.106;5.534;2023-05-14T11:35:42;22.10;99.90
18297;DHT22;18066;52.106;5.534;2023-05-14T11:38:14;21.80;99.90
18297;DHT22;18066;52.106;5.534;2023-05-14T11:40:41;21.60;99.90
18297;DHT22;18066;52.106;5.534;2023-05-14T11:43:08;21.60;99.90
18297;DHT22;18066;52.106;5.534;2023-05-14T11:45:35;21.60;99.90
18297;DHT22;18066;52.106;5.534;2023-05-14T11:48:10;21.90;99.90
18297;DHT22;18066;52.106;5.534;2023-05-14T11:50:39;21.80;99.90
18297;DHT22;18066;52.106;5.534;2023-05-14T11:53:06;21.90;99.90
18297;DHT22;18066;52.106;5.534;2023-05-14T11:55:34;22.10;99.90
18297;DHT22;18066;52.106;5.534;2023-05-14T11:58:01;22.20;99.90
18297;DHT22;18066;52.106;5.534;2023-05-14T12:00:28;21.90;99.90
18297;DHT22;18066;52.106;5.534;2023-05-14T12:02:55;21.90;99.90
18297;DHT22;18066;52.106;5.534;2023-05-14T12:05:22;22.10;99.90
18297;DHT22;18066;52.106;5.534;2023-05-14T12:07:49;22.40;99.90
18297;DHT22;18066;52.106;5.534;2023-05-14T12:10:16;22.40;99.90
18297;DHT22;18066;52.106;5.534;2023-05-14T12:12:46;22.20;99.90
18297;DHT22;18066;52.106;5.534;2023-05-14T12:15:14;22.40;99.90
18297;DHT22;18066;52.106;5.534;2023-05-14T12:17:42;22.70;99.90
18297;DHT22;18066;52.106;5.534;2023-05-14T12:20:14;22.50;99.90
18297;DHT22;18066;52.106;5.534;2023-05-14T12:22:42;22.30;99.90
18297;DHT22;18066;52.106;5.534;2023-05-14T12:25:11;22.50;99.90
18297;DHT22;18066;52.106;5.534;2023-05-14T12:27:38;22.20;99.90
18297;DHT22;18066;52.106;5.534;2023-05-14T12:30:07;22.00;99.90
18297;DHT22;18066;52.106;5.534;2023-05-14T12:32:36;22.50;99.90
18297;DHT22;18066;52.106;5.534;2023-05-14T12:35:04;22.70;99.90
18297;DHT22;18066;52.106;5.534;2023-05-14T12:37:31;22.80;99.90
18297;DHT22;18066;52.106;5.534;2023-05-14T12:39:58;23.10;99.90
18297;DHT22;18066;52.106;5.534;2023-05-14T12:42:25;23.40;99.90
18297;DHT22;18066;52.106;5.534;2023-05-14T12:44:52;23.50;99.90
18297;DHT22;18066;52.106;5.534;2023-05-14T12:47:20;23.30;99.90
18297;DHT22;18066;52.106;5.534;2023-05-14T12:49:47;23.30;99.90
18297;DHT22;18066;52.106;5.534;2023-05-14T12:52:14;23.00;99.90
18297;DHT22;18066;52.106;5.534;2023-05-14T12:54:41;23.10;99.90
18297;DHT22;18066;52.106;5.534;2023-05-14T12:57:08;23.20;99.90
18297;DHT22;18066;52.106;5.534;2023-05-14T12:59:34;23.50;99.90
18297;DHT22;18066;52.106;5.534;2023-05-14T13:02:01;23.40;99.90
18297;DHT22;18066;52.106;5.534;2023-05-14T13:04:29;23.30;99.90
18297;DHT22;18066;52.106;5.534;2023-05-14T13:06:56;23.40;99.90
18297;DHT22;18066;52.106;5.534;2023-05-14T13:09:23;23.40;99.90
18297;DHT22;18066;52.106;5.534;2023-05-14T13:11:52;23.50;99.90
18297;DHT22;18066;52.106;5.534;2023-05-14T13:14:19;23.40;99.90
18297;DHT22;18066;52.106;5.534;2023-05-14T13:16:45;23.50;99.90
18297;DHT22;18066;52.106;5.534;2023-05-14T13:19:12;23.70;99.90
18297;DHT22;18066;52.106;5.534;2023-05-14T13:21:40;23.90;99.90
18297;DHT22;18066;52.106;5.534;2023-05-14T13:24:08;24.00;99.90
18297;DHT22;18066;52.106;5.534;2023-05-14T13:26:35;24.20;99.90
18297;DHT22;18066;52.106;5.534;2023-05-14T13:29:02;24.20;99.90
18297;DHT22;18066;52.106;5.534;2023-05-14T13:31:29;24.00;99.90
18297;DHT22;18066;52.106;5.534;2023-05-14T13:33:56;24.10;99.90
18297;DHT22;18066;52.106;5.534;2023-05-14T13:36:23;24.20;99.90
18297;DHT22;18066;52.106;5.534;2023-05-14T13:38:52;24.20;99.90
18297;DHT22;18066;52.106;5.534;2023-05-14T13:41:18;24.10;99.90
18297;DHT22;18066;52.106;5.534;2023-05-14T13:43:46;24.00;99.90
18297;DHT22;18066;52.106;5.534;2023-05-14T13:46:12;24.20;99.90
18297;DHT22;18066;52.106;5.534;2023-05-14T13:48:39;24.30;99.90
18297;DHT22;18066;52.106;5.534;2023-05-14T13:51:06;24.40;99.90
18297;DHT22;18066;52.106;5.534;2023-05-14T13:53:33;24.00;99.90
18297;DHT22;18066;52.106;5.534;2023-05-14T13:56:01;23.90;99.90
18297;DHT22;18066;52.106;5.534;2023-05-14T13:58:28;23.80;99.90
18297;DHT22;18066;52.106;5.534;2023-05-14T14:00:54;23.90;99.90
18297;DHT22;18066;52.106;5.534;2023-05-14T14:03:21;24.20;99.90
18297;DHT22;18066;52.106;5.534;2023-05-14T14:05:48;24.50;99.90
18297;DHT22;18066;52.106;5.534;2023-05-14T14:08:16;24.60;99.90
18297;DHT22;18066;52.106;5.534;2023-05-14T14:10:43;24.60;99.90
18297;DHT22;18066;52.106;5.534;2023-05-14T14:13:11;24.40;99.90
18297;DHT22;18066;52.106;5.534;2023-05-14T14:15:38;24.40;99.90
18297;DHT22;18066;52.106;5.534;2023-05-14T14:18:05;24.50;99.90
18297;DHT22;18066;52.106;5.534;2023-05-14T14:20:32;24.50;99.90
18297;DHT22;18066;52.106;5.534;2023-05-14T14:22:59;24.60;99.90
18297;DHT22;18066;52.106;5.534;2023-05-14T14:25:25;25.00;99.90
18297;DHT22;18066;52.106;5.534;2023-05-14T14:27:52;25.40;99.90
18297;DHT22;18066;52.106;5.534;2023-05-14T14:30:20;25.40;99.90
18297;DHT22;18066;52.106;5.534;2023-05-14T14:32:48;25.20;99.90
18297;DHT22;18066;52.106;5.534;2023-05-14T14:35:16;25.10;99.90
18297;DHT22;18066;52.106;5.534;2023-05-14T14:37:43;25.20;99.90
18297;DHT22;18066;52.106;5.534;2023-05-14T14:40:13;25.30;99.90
18297;DHT22;18066;52.106;5.534;2023-05-14T14:42:42;25.20;99.90
18297;DHT22;18066;52.106;5.534;2023-05-14T14:45:09;25.30;99.90
18297;DHT22;18066;52.106;5.534;2023-05-14T14:47:41;25.10;99.90
18297;DHT22;18066;52.106;5.534;2023-05-14T14:50:08;25.60;99.90
18297;DHT22;18066;52.106;5.534;2023-05-14T14:52:35;26.30;99.90
18297;DHT22;18066;52.106;5.534;2023-05-14T14:55:02;27.20;99.90
18297;DHT22;18066;52.106;5.534;2023-05-14T14:57:29;27.50;99.90
18297;DHT22;18066;52.106;5.534;2023-05-14T14:59:56;27.00;99.90
18297;DHT22;18066;52.106;5.534;2023-05-14T15:02:23;26.40;99.90
18297;DHT22;18066;52.106;5.534;2023-05-14T15:04:52;26.00;99.90
18297;DHT22;18066;52.106;5.534;2023-05-14T15:07:18;26.20;99.90
18297;DHT22;18066;52.106;5.534;2023-05-14T15:09:46;26.30;99.90
18297;DHT22;18066;52.106;5.534;2023-05-14T15:12:13;26.20;99.90
18297;DHT22;18066;52.106;5.534;2023-05-14T15:14:41;25.80;99.90
18297;DHT22;18066;52.106;5.534;2023-05-14T15:17:08;25.00;99.90
18297;DHT22;18066;52.106;5.534;2023-05-14T15:19:35;24.50;99.90
18297;DHT22;18066;52.106;5.534;2023-05-14T15:22:03;24.30;99.90
18297;DHT22;18066;52.106;5.534;2023-05-14T15:24:30;25.30;99.90
18297;DHT22;18066;52.106;5.534;2023-05-14T15:26:57;26.40;99.90
18297;DHT22;18066;52.106;5.534;2023-05-14T15:29:24;27.10;99.90
18297;DHT22;18066;52.106;5.534;2023-05-14T15:31:51;27.00;99.90
18297;DHT22;18066;52.106;5.534;2023-05-14T15:34:17;26.60;99.90